PANN

Details ICAO PANN
Name NENANA MUNI
Region USA (Alaska)
Timezone America/Anchorage (UTC-8.0)
Plans Departing 1
Arriving 4
Stats Elevation 362 ft / 110 m (AMSL)
Location 64.548078° -149.075687°
Runways 2
Magnetic Variation 16.864° E
Sunrise 2018-05-23 12:11:04 UTC / 2018-05-23 04:11:04 Local
Sunset 2018-05-24 07:37:58 UTC / 2018-05-23 23:37:58 Local
Advertisement - Login to hide

Runways

ID Width Length Bearing (true) Bearing (mag) Surface Threshold Offset Overrun Length
04L 100 ft / 30 m 4,585 ft / 1,397 m 58.89° 42.03° Asphalt 0 ft / 0 m 0 ft / 0 m
04R 60 ft / 18 m 2,512 ft / 766 m 58.89° 42.03° Grass 0 ft / 0 m 0 ft / 0 m
22L 60 ft / 18 m 2,512 ft / 766 m 238.91° 222.05° Grass 0 ft / 0 m 0 ft / 0 m
22R 100 ft / 30 m 4,585 ft / 1,397 m 238.92° 222.06° Asphalt 0 ft / 0 m 0 ft / 0 m

Map

Weather


0- 5 10 15 20 25 30 35+ Temperature / ° C

Clouds and Precipitation
Forecast for 2018-05-24 06:00 UTC. Updated 2 hours ago

Ground ~20,000 ft ~40,000 ft Winds

METAR

PANN 240553Z AUTO 11004KT 10SM SCT065 BKN100 BKN120 12/09 A2962 RMK AO2 RAB18E32 SLP034 P0000 60002 T01220089 10189 20122 53020 TSNO

TAF

Not found

Frequencies

Recorded 125.20 MHz ASOS
Approach 125.35 MHz FAIRBANKS APP/DEP
Unicom 122.10 MHz CTAF
Warning: Do not use this data for real-world aviation or navigation. No guarantee of current accuracy is given.